createdAt,value
2023-03-15T00:01:21.013Z,31.33
2023-03-15T00:03:48.852Z,31.85
2023-03-15T00:06:16.683Z,30.55
2023-03-15T00:08:47.739Z,28.75
2023-03-15T00:11:16.986Z,32.83
2023-03-15T00:13:45.522Z,30.02
2023-03-15T00:16:17.555Z,30.02
2023-03-15T00:18:47.950Z,32.17
2023-03-15T00:21:15.755Z,34.15
2023-03-15T00:23:43.471Z,32.10
2023-03-15T00:26:11.356Z,32.08
2023-03-15T00:28:39.471Z,32.03
2023-03-15T00:31:21.936Z,31.92
2023-03-15T00:33:53.942Z,29.90
2023-03-15T00:38:56.426Z,30.60
2023-03-15T00:41:24.554Z,31.38
2023-03-15T00:43:52.571Z,31.73
2023-03-15T00:46:20.725Z,29.20
2023-03-15T00:48:49.547Z,33.13
2023-03-15T00:51:21.235Z,33.05
2023-03-15T00:53:50.242Z,32.05
2023-03-15T00:56:24.792Z,31.55
2023-03-15T00:58:55.524Z,31.92
2023-03-15T01:01:26.621Z,30.95
2023-03-15T01:03:54.212Z,31.55
2023-03-15T01:06:24.192Z,30.98
2023-03-15T01:08:52.155Z,30.35
2023-03-15T01:11:24.307Z,30.55
2023-03-15T01:16:21.916Z,28.48
2023-03-15T01:18:51.578Z,28.58
2023-03-15T01:21:22.522Z,29.20
2023-03-15T01:23:50.800Z,28.10
2023-03-15T01:26:21.248Z,26.02
2023-03-15T01:28:49.248Z,26.33
2023-03-15T01:31:23.267Z,25.58
2023-03-15T01:33:51.078Z,25.10
2023-03-15T01:36:19.074Z,22.92
2023-03-15T01:38:46.866Z,23.27
2023-03-15T01:41:16.607Z,21.40
2023-03-15T01:43:47.435Z,22.60
2023-03-15T01:46:35.226Z,23.35
2023-03-15T01:49:33.442Z,22.58
2023-03-15T01:52:13.867Z,22.33
2023-03-15T01:55:19.667Z,22.17
2023-03-15T01:58:01.460Z,20.73
2023-03-15T02:00:31.198Z,19.60
2023-03-15T02:03:18.898Z,20.55
2023-03-15T02:05:57.305Z,21.83
2023-03-15T02:08:45.413Z,21.57
2023-03-15T02:11:14.911Z,24.55
2023-03-15T02:13:45.003Z,23.42
2023-03-15T02:16:14.286Z,25.77
2023-03-15T02:18:50.486Z,25.25
2023-03-15T02:22:04.320Z,24.27
2023-03-15T02:24:48.764Z,24.38
2023-03-15T02:27:30.634Z,23.85
2023-03-15T02:29:59.062Z,24.73
2023-03-15T02:32:27.656Z,23.75
2023-03-15T02:34:57.915Z,24.23
2023-03-15T02:37:25.690Z,24.42
2023-03-15T02:39:53.887Z,24.00
2023-03-15T02:42:21.462Z,25.15
2023-03-15T02:44:50.893Z,23.52
2023-03-15T02:47:23.672Z,23.40
2023-03-15T02:49:53.908Z,23.10
2023-03-15T02:52:22.672Z,24.33
2023-03-15T02:54:50.462Z,24.00
2023-03-15T02:57:19.371Z,22.85
2023-03-15T02:59:51.023Z,23.13
2023-03-15T03:02:19.201Z,22.20
2023-03-15T03:04:47.132Z,22.75
2023-03-15T03:07:15.150Z,24.13
2023-03-15T03:09:47.957Z,24.30
2023-03-15T03:12:16.882Z,23.80
2023-03-15T03:14:44.469Z,23.23
2023-03-15T03:17:16.425Z,23.60
2023-03-15T03:19:44.620Z,21.85
2023-03-15T03:22:13.444Z,21.08
2023-03-15T03:24:45.905Z,20.67
2023-03-15T03:27:15.812Z,20.70
2023-03-15T03:29:45.915Z,21.00
2023-03-15T03:32:13.691Z,22.60
2023-03-15T03:34:41.299Z,22.60
2023-03-15T03:37:09.253Z,20.83
2023-03-15T03:39:52.964Z,20.13
2023-03-15T03:42:21.233Z,23.20
2023-03-15T03:44:50.370Z,21.40
2023-03-15T03:47:18.512Z,22.80
2023-03-15T03:49:45.997Z,22.45
2023-03-15T03:52:13.471Z,20.98
2023-03-15T03:54:42.678Z,18.85
2023-03-15T03:57:11.077Z,19.60
2023-03-15T03:59:39.504Z,22.40
2023-03-15T04:02:07.209Z,22.20
2023-03-15T04:04:35.841Z,22.23
2023-03-15T04:07:04.848Z,22.98
2023-03-15T04:09:38.116Z,23.20
2023-03-15T04:12:07.416Z,23.92
2023-03-15T04:14:36.563Z,25.20
2023-03-15T04:17:08.793Z,23.25
2023-03-15T04:19:36.920Z,22.27
2023-03-15T04:22:07.857Z,23.52
2023-03-15T04:25:02.053Z,21.30
2023-03-15T04:27:58.790Z,21.08
2023-03-15T04:30:58.836Z,22.30
2023-03-15T04:33:45.209Z,21.00
2023-03-15T04:36:18.470Z,19.98
2023-03-15T04:39:06.048Z,21.00
2023-03-15T04:41:52.178Z,17.75
2023-03-15T04:44:35.101Z,17.67
2023-03-15T04:47:15.507Z,16.13
2023-03-15T04:49:54.472Z,16.08
2023-03-15T04:52:45.272Z,14.43
2023-03-15T04:55:26.259Z,14.57
2023-03-15T04:58:18.080Z,15.23
2023-03-15T05:01:05.103Z,13.75
2023-03-15T05:03:51.609Z,14.70
2023-03-15T05:06:36.242Z,14.55
2023-03-15T05:09:39.784Z,16.33
2023-03-15T05:12:25.836Z,16.33
2023-03-15T05:14:59.274Z,17.73
2023-03-15T05:17:37.429Z,17.17
2023-03-15T05:20:42.936Z,16.00
2023-03-15T05:23:30.542Z,16.35
2023-03-15T05:26:18.992Z,15.05
2023-03-15T05:29:09.209Z,15.73
2023-03-15T05:31:55.217Z,15.00
2023-03-15T05:34:48.577Z,16.73
2023-03-15T05:37:35.789Z,16.45
2023-03-15T05:40:21.407Z,15.07
2023-03-15T05:43:14.983Z,15.57
2023-03-15T05:46:01.001Z,14.77
2023-03-15T05:48:49.614Z,13.90
2023-03-15T05:51:47.110Z,16.83
2023-03-15T05:54:32.998Z,17.20
2023-03-15T05:57:10.989Z,17.67
2023-03-15T05:59:58.624Z,16.48
2023-03-15T06:02:42.836Z,14.82
2023-03-15T06:05:39.662Z,16.27
2023-03-15T06:08:12.426Z,16.83
2023-03-15T06:10:43.689Z,19.42
2023-03-15T06:13:12.323Z,17.85
2023-03-15T06:15:41.083Z,17.27
2023-03-15T06:18:10.553Z,16.15
2023-03-15T06:20:38.631Z,16.08
2023-03-15T06:23:10.762Z,16.80
2023-03-15T06:25:45.730Z,16.98
2023-03-15T06:28:14.263Z,17.23
2023-03-15T06:30:47.589Z,16.15
2023-03-15T06:33:16.417Z,18.08
2023-03-15T06:35:44.106Z,18.05
2023-03-15T06:38:13.838Z,19.85
2023-03-15T06:40:41.421Z,18.65
2023-03-15T06:43:08.990Z,13.88
2023-03-15T06:45:36.826Z,13.02
2023-03-15T06:48:05.203Z,11.40
2023-03-15T06:50:46.007Z,11.35
2023-03-15T06:53:14.854Z,9.00
2023-03-15T06:55:42.954Z,12.35
2023-03-15T06:58:10.626Z,11.52
2023-03-15T07:00:38.266Z,10.45
2023-03-15T07:03:05.771Z,10.57
2023-03-15T07:05:33.274Z,10.00
2023-03-15T07:08:00.810Z,10.10
2023-03-15T07:10:28.224Z,10.50
2023-03-15T07:12:56.540Z,11.05
2023-03-15T07:15:23.991Z,10.30
2023-03-15T07:17:51.478Z,9.57
2023-03-15T07:20:19.077Z,9.35
2023-03-15T07:22:46.502Z,10.40
2023-03-15T07:25:14.301Z,9.88
2023-03-15T07:27:41.700Z,9.93
2023-03-15T07:30:10.072Z,10.55
2023-03-15T07:32:39.063Z,9.35
2023-03-15T07:35:06.888Z,9.05
2023-03-15T07:37:34.369Z,10.02
2023-03-15T07:40:09.792Z,7.43
2023-03-15T07:42:37.742Z,7.43
2023-03-15T07:45:06.918Z,6.93
2023-03-15T07:47:34.483Z,7.53
2023-03-15T07:50:08.814Z,7.22
2023-03-15T07:52:36.259Z,7.57
2023-03-15T07:55:04.896Z,7.30
2023-03-15T07:57:32.400Z,8.27
2023-03-15T07:59:59.938Z,7.50
2023-03-15T08:02:29.570Z,7.60
2023-03-15T08:04:58.853Z,7.30
2023-03-15T08:07:26.503Z,7.97
2023-03-15T08:09:54.203Z,8.25
2023-03-15T08:12:21.673Z,8.20
2023-03-15T08:14:49.903Z,8.50
2023-03-15T08:17:18.029Z,8.27
2023-03-15T08:19:45.497Z,8.73
2023-03-15T08:22:13.979Z,8.45
2023-03-15T08:24:41.437Z,10.10
2023-03-15T08:27:09.411Z,10.45
2023-03-15T08:29:37.320Z,12.40
2023-03-15T08:32:05.059Z,11.90
2023-03-15T08:34:34.902Z,11.93
2023-03-15T08:37:02.357Z,11.75
2023-03-15T08:39:29.767Z,10.73
2023-03-15T08:41:57.252Z,11.30
2023-03-15T08:44:24.666Z,10.68
2023-03-15T08:46:52.166Z,9.38
2023-03-15T08:49:19.686Z,6.72
2023-03-15T08:51:47.261Z,8.48
2023-03-15T08:54:14.959Z,8.38
2023-03-15T08:56:42.833Z,5.85
2023-03-15T08:59:12.788Z,4.93
2023-03-15T09:01:41.937Z,6.32
2023-03-15T09:04:09.428Z,3.90
2023-03-15T09:06:37.215Z,3.33
2023-03-15T09:09:04.730Z,3.10
2023-03-15T09:11:32.094Z,4.35
2023-03-15T09:13:59.570Z,4.55
2023-03-15T09:16:26.996Z,4.70
2023-03-15T09:18:54.511Z,4.88
2023-03-15T09:21:21.970Z,5.00
2023-03-15T09:23:49.389Z,5.35
2023-03-15T09:26:16.884Z,5.43
2023-03-15T09:28:44.298Z,5.72
2023-03-15T09:31:11.814Z,5.45
2023-03-15T09:33:39.261Z,6.18
2023-03-15T09:36:06.906Z,6.53
2023-03-15T09:38:34.304Z,6.65
2023-03-15T09:41:03.784Z,4.80
2023-03-15T09:43:57.468Z,5.22
2023-03-15T09:46:52.681Z,4.30
2023-03-15T09:49:47.129Z,2.67
2023-03-15T09:52:56.375Z,1.88
2023-03-15T09:55:28.272Z,2.08
2023-03-15T09:58:01.829Z,2.08
2023-03-15T10:00:35.046Z,1.50
2023-03-15T10:03:07.207Z,1.52
2023-03-15T10:05:52.233Z,1.60
2023-03-15T10:08:21.409Z,1.50
2023-03-15T10:11:12.705Z,2.78
2023-03-15T10:14:01.899Z,1.83
2023-03-15T10:16:41.963Z,1.52
2023-03-15T10:19:25.375Z,1.60
2023-03-15T10:21:56.663Z,1.70
2023-03-15T10:24:27.139Z,1.80
2023-03-15T10:26:55.014Z,3.20
2023-03-15T10:29:26.986Z,5.80
2023-03-15T10:31:55.218Z,7.40
2023-03-15T10:34:26.161Z,6.72
2023-03-15T10:36:55.213Z,5.65
2023-03-15T10:39:24.973Z,4.43
2023-03-15T10:41:52.411Z,3.45
2023-03-15T10:44:24.317Z,2.72
2023-03-15T10:47:16.036Z,3.13
2023-03-15T10:49:47.717Z,3.20
2023-03-15T10:52:34.401Z,2.35
2023-03-15T10:55:14.125Z,2.92
2023-03-15T10:57:53.232Z,2.45
2023-03-15T11:00:32.948Z,3.58
2023-03-15T11:03:16.669Z,2.92
2023-03-15T11:05:47.102Z,2.35
2023-03-15T11:08:17.748Z,2.80
2023-03-15T11:10:47.349Z,7.20
2023-03-15T11:13:22.698Z,3.28
2023-03-15T11:16:18.606Z,1.90
2023-03-15T11:19:01.583Z,3.13
2023-03-15T11:21:36.877Z,1.40
2023-03-15T11:24:06.073Z,1.25
2023-03-15T11:26:39.010Z,1.83
2023-03-15T11:29:28.328Z,1.17
2023-03-15T11:31:56.831Z,1.60
2023-03-15T11:34:39.842Z,1.00
2023-03-15T11:37:18.576Z,1.35
2023-03-15T11:40:18.393Z,1.10
2023-03-15T11:43:15.482Z,0.90
2023-03-15T11:45:56.542Z,1.13
2023-03-15T11:48:48.686Z,1.55
2023-03-15T11:51:16.553Z,1.20
2023-03-15T11:53:50.177Z,1.33
2023-03-15T11:56:27.833Z,1.30
2023-03-15T11:59:11.383Z,1.10
2023-03-15T12:01:46.229Z,1.30
2023-03-15T12:04:25.764Z,1.35
2023-03-15T12:06:56.701Z,1.50
2023-03-15T12:09:33.320Z,0.90
2023-03-15T12:12:26.984Z,0.90
2023-03-15T12:15:19.339Z,1.15
2023-03-15T12:17:51.286Z,1.60
2023-03-15T12:20:28.139Z,1.02
2023-03-15T12:23:35.504Z,1.00
2023-03-15T12:26:02.919Z,1.10
2023-03-15T12:28:54.806Z,1.15
2023-03-15T12:31:47.825Z,0.90
2023-03-15T12:34:26.202Z,1.08
2023-03-15T12:37:01.834Z,1.20
2023-03-15T12:39:37.290Z,1.40
2023-03-15T12:42:05.355Z,1.10
2023-03-15T12:44:32.691Z,1.02
2023-03-15T12:47:01.865Z,1.20
2023-03-15T12:49:30.944Z,1.40
2023-03-15T12:52:02.561Z,1.33
2023-03-15T12:54:54.251Z,1.20
2023-03-15T12:57:30.773Z,1.00
2023-03-15T13:00:03.350Z,1.13
2023-03-15T13:02:44.815Z,1.20
2023-03-15T13:05:30.947Z,1.88
2023-03-15T13:08:23.854Z,1.17
2023-03-15T13:10:51.213Z,1.20
2023-03-15T13:13:24.967Z,1.10
2023-03-15T13:16:05.633Z,3.28
2023-03-15T13:18:42.055Z,1.80
2023-03-15T13:21:21.091Z,1.60
2023-03-15T13:23:54.244Z,1.77
2023-03-15T13:26:33.397Z,1.17
2023-03-15T13:29:17.533Z,1.30
2023-03-15T13:31:46.804Z,1.50
2023-03-15T13:34:16.301Z,1.65
2023-03-15T13:36:53.480Z,1.10
2023-03-15T13:39:24.049Z,1.85
2023-03-15T13:41:58.857Z,1.88
2023-03-15T13:44:27.946Z,1.38
2023-03-15T13:46:56.344Z,4.90
2023-03-15T13:49:24.942Z,1.40
2023-03-15T13:51:53.438Z,1.60
2023-03-15T13:54:30.633Z,1.40
2023-03-15T13:57:03.639Z,1.48
2023-03-15T13:59:35.658Z,1.90
2023-03-15T14:02:05.759Z,1.58
2023-03-15T14:04:38.246Z,1.50
2023-03-15T14:07:13.448Z,2.08
2023-03-15T14:09:40.878Z,1.38
2023-03-15T14:12:18.779Z,1.48
2023-03-15T14:14:51.589Z,1.00
2023-03-15T14:17:30.271Z,1.70
2023-03-15T14:20:09.001Z,1.88
2023-03-15T14:22:41.162Z,2.03
2023-03-15T14:25:29.259Z,1.50
2023-03-15T14:28:02.482Z,1.80
2023-03-15T14:30:36.010Z,1.80
2023-03-15T14:33:08.243Z,2.05
2023-03-15T14:35:35.684Z,2.00
2023-03-15T14:38:15.125Z,1.77
2023-03-15T14:40:42.812Z,2.00
2023-03-15T14:43:11.060Z,1.85
2023-03-15T14:45:41.541Z,1.83
2023-03-15T14:48:13.866Z,1.65
2023-03-15T14:50:43.838Z,1.90
2023-03-15T14:53:17.349Z,1.85
2023-03-15T14:55:44.740Z,2.00
2023-03-15T14:58:15.153Z,2.15
2023-03-15T15:00:44.245Z,2.15
2023-03-15T15:03:19.781Z,1.83
2023-03-15T15:05:47.446Z,2.03
2023-03-15T15:08:18.111Z,2.15
2023-03-15T15:10:47.124Z,1.90
2023-03-15T15:13:23.544Z,1.98
2023-03-15T15:15:55.998Z,2.47
2023-03-15T15:18:29.358Z,2.05
2023-03-15T15:20:59.836Z,2.30
2023-03-15T15:23:47.450Z,2.10
2023-03-15T15:26:26.294Z,2.20
2023-03-15T15:28:56.533Z,2.40
2023-03-15T15:31:26.150Z,2.65
2023-03-15T15:33:55.033Z,2.42
2023-03-15T15:36:32.586Z,2.15
2023-03-15T15:39:07.174Z,2.80
2023-03-15T15:41:35.291Z,2.70
2023-03-15T15:44:02.922Z,2.45
2023-03-15T15:46:30.345Z,2.55
2023-03-15T15:48:58.856Z,2.28
2023-03-15T15:51:31.922Z,2.10
2023-03-15T15:54:01.433Z,2.13
2023-03-15T15:56:33.815Z,3.35
2023-03-15T16:01:31.559Z,2.55
2023-03-15T16:04:00.486Z,2.45
2023-03-15T16:06:28.041Z,2.40
2023-03-15T16:08:56.151Z,2.60
2023-03-15T16:11:23.800Z,2.47
2023-03-15T16:13:54.004Z,2.58
2023-03-15T16:16:22.064Z,2.42
2023-03-15T16:18:49.793Z,2.45
2023-03-15T16:21:26.721Z,2.60
2023-03-15T16:24:16.613Z,2.78
2023-03-15T16:26:45.541Z,2.63
2023-03-15T16:29:23.914Z,2.60
2023-03-15T16:31:51.383Z,2.65
2023-03-15T16:34:20.058Z,3.15
2023-03-15T16:36:54.872Z,2.67
2023-03-15T16:39:22.760Z,2.83
2023-03-15T16:41:52.131Z,2.90
2023-03-15T16:44:20.878Z,2.78
2023-03-15T16:46:48.818Z,2.92
2023-03-15T16:49:16.531Z,3.22
2023-03-15T16:51:47.641Z,2.92
2023-03-15T16:54:27.320Z,2.50
2023-03-15T16:57:02.165Z,3.05
2023-03-15T16:59:29.888Z,2.95
2023-03-15T17:01:57.350Z,2.40
2023-03-15T17:04:24.769Z,2.72
2023-03-15T17:06:52.156Z,3.08
2023-03-15T17:09:22.419Z,2.67
2023-03-15T17:11:55.987Z,2.97
2023-03-15T17:14:32.145Z,3.10
2023-03-15T17:17:02.085Z,3.20
2023-03-15T17:19:29.455Z,3.28
2023-03-15T17:21:56.865Z,3.88
2023-03-15T17:24:24.305Z,3.20
2023-03-15T17:26:51.743Z,3.90
2023-03-15T17:29:19.118Z,3.10
2023-03-15T17:31:48.264Z,2.97
2023-03-15T17:34:16.520Z,2.85
2023-03-15T17:36:43.944Z,3.42
2023-03-15T17:39:15.654Z,3.63
2023-03-15T17:41:48.286Z,6.90
2023-03-15T17:44:16.123Z,4.97
2023-03-15T17:46:43.714Z,5.53
2023-03-15T17:49:13.309Z,9.32
2023-03-15T17:51:41.242Z,26.98
2023-03-15T17:54:17.820Z,18.75
2023-03-15T17:56:45.322Z,16.25
2023-03-15T17:59:13.528Z,11.13
2023-03-15T18:01:43.940Z,9.50
2023-03-15T18:04:16.326Z,6.13
2023-03-15T18:09:12.638Z,4.68
2023-03-15T18:11:42.558Z,4.60
2023-03-15T18:14:15.073Z,3.95
2023-03-15T18:16:43.467Z,5.00
2023-03-15T18:19:11.345Z,4.97
2023-03-15T18:21:38.812Z,5.35
2023-03-15T18:24:06.477Z,7.97
2023-03-15T18:26:33.913Z,8.15
2023-03-15T18:29:01.716Z,7.68
2023-03-15T18:31:29.215Z,7.20
2023-03-15T18:33:56.642Z,8.30
2023-03-15T18:36:28.196Z,7.57
2023-03-15T18:38:55.802Z,7.07
2023-03-15T18:41:25.009Z,10.57
2023-03-15T18:43:52.737Z,9.35
2023-03-15T18:46:25.135Z,6.63
2023-03-15T18:48:53.893Z,5.72
2023-03-15T18:51:25.685Z,6.43
2023-03-15T18:53:53.235Z,9.10
2023-03-15T18:56:24.141Z,7.05
2023-03-15T18:58:52.784Z,8.18
2023-03-15T19:01:24.723Z,6.95
2023-03-15T19:03:53.386Z,7.18
2023-03-15T19:06:21.954Z,7.97
2023-03-15T19:08:53.424Z,7.53
2023-03-15T19:11:23.853Z,6.97
2023-03-15T19:13:51.636Z,7.18
2023-03-15T19:16:23.027Z,6.38
2023-03-15T19:21:19.767Z,9.60
2023-03-15T19:23:47.671Z,9.10
2023-03-15T19:26:15.158Z,8.75
2023-03-15T19:28:42.768Z,8.45
2023-03-15T19:31:10.283Z,7.95
2023-03-15T19:33:38.471Z,8.48
2023-03-15T19:36:07.925Z,7.70
2023-03-15T19:38:40.318Z,9.82
2023-03-15T19:43:38.675Z,10.02
2023-03-15T19:46:08.030Z,8.95
2023-03-15T19:48:36.414Z,7.03
2023-03-15T19:51:04.565Z,10.43
2023-03-15T19:53:32.467Z,11.50
2023-03-15T19:56:04.989Z,13.27
2023-03-15T19:58:33.156Z,10.60
2023-03-15T20:01:01.481Z,9.68
2023-03-15T20:03:28.957Z,9.00
2023-03-15T20:05:56.388Z,7.97
2023-03-15T20:08:25.343Z,8.43
2023-03-15T20:11:00.044Z,8.27
2023-03-15T20:13:27.576Z,8.05
2023-03-15T20:15:55.128Z,9.38
2023-03-15T20:18:22.579Z,10.27
2023-03-15T20:20:51.228Z,8.60
2023-03-15T20:23:19.408Z,8.60
2023-03-15T20:25:47.172Z,11.02
2023-03-15T20:28:14.561Z,8.68
2023-03-15T20:30:44.194Z,8.55
2023-03-15T20:33:11.757Z,7.78
2023-03-15T20:35:39.136Z,12.30
2023-03-15T20:38:08.535Z,10.23
2023-03-15T20:40:41.056Z,9.02
2023-03-15T20:43:09.834Z,7.43
2023-03-15T20:45:38.827Z,7.55
2023-03-15T20:48:06.424Z,7.05
2023-03-15T20:50:33.972Z,6.60
2023-03-15T20:53:05.100Z,6.40
2023-03-15T20:55:32.478Z,7.60
2023-03-15T20:58:01.002Z,8.00
2023-03-15T21:00:29.203Z,5.88
2023-03-15T21:02:56.608Z,6.07
2023-03-15T21:05:24.350Z,6.28
2023-03-15T21:07:52.626Z,4.90
2023-03-15T21:10:21.448Z,5.57
2023-03-15T21:12:49.061Z,5.80
2023-03-15T21:15:19.151Z,5.90
2023-03-15T21:17:49.515Z,5.13
2023-03-15T21:20:18.119Z,5.35
2023-03-15T21:22:46.633Z,6.93
2023-03-15T21:25:14.288Z,6.00
2023-03-15T21:27:42.690Z,5.70
2023-03-15T21:30:14.595Z,5.40
2023-03-15T21:32:43.142Z,5.95
2023-03-15T21:35:11.035Z,5.50
2023-03-15T21:37:38.445Z,6.38
2023-03-15T21:40:07.026Z,7.28
2023-03-15T21:42:35.356Z,7.20
2023-03-15T21:45:03.258Z,8.80
2023-03-15T21:47:31.228Z,8.40
2023-03-15T21:49:58.629Z,7.45
2023-03-15T21:52:28.003Z,6.38
2023-03-15T21:54:55.425Z,5.22
2023-03-15T21:57:22.924Z,5.05
2023-03-15T21:59:51.076Z,5.53
2023-03-15T22:02:18.588Z,6.40
2023-03-15T22:04:46.126Z,6.20
2023-03-15T22:07:13.678Z,6.88
2023-03-15T22:09:41.889Z,12.80
2023-03-15T22:12:09.934Z,10.43
2023-03-15T22:14:37.457Z,8.38
2023-03-15T22:17:05.052Z,7.30
2023-03-15T22:19:32.544Z,5.22
2023-03-15T22:22:00.610Z,5.38
2023-03-15T22:24:28.000Z,3.92
2023-03-15T22:26:56.224Z,4.38
2023-03-15T22:29:23.666Z,6.68
2023-03-15T22:31:51.675Z,5.82
2023-03-15T22:34:19.814Z,6.60
2023-03-15T22:36:47.242Z,6.55
2023-03-15T22:39:14.689Z,6.57
2023-03-15T22:41:42.104Z,4.90
2023-03-15T22:44:10.489Z,5.03
2023-03-15T22:46:38.032Z,4.43
2023-03-15T22:49:05.446Z,4.28
2023-03-15T22:51:35.802Z,3.90
2023-03-15T22:54:03.206Z,3.90
2023-03-15T22:56:30.641Z,3.67
2023-03-15T22:58:58.097Z,3.35
2023-03-15T23:01:25.629Z,3.80
2023-03-15T23:03:53.140Z,3.88
2023-03-15T23:06:20.643Z,4.18
2023-03-15T23:08:48.085Z,4.45
2023-03-15T23:11:18.118Z,4.95
2023-03-15T23:13:48.779Z,4.18
2023-03-15T23:16:19.716Z,4.13
2023-03-15T23:18:48.730Z,4.25
2023-03-15T23:21:16.195Z,4.20
2023-03-15T23:23:43.753Z,4.00
2023-03-15T23:26:13.064Z,4.47
2023-03-15T23:28:40.561Z,4.25
2023-03-15T23:31:08.183Z,4.18
2023-03-15T23:33:35.765Z,3.88
2023-03-15T23:36:05.853Z,3.30
2023-03-15T23:38:34.648Z,4.18
2023-03-15T23:41:02.829Z,3.50
2023-03-15T23:43:30.316Z,3.95
2023-03-15T23:45:59.782Z,3.55
2023-03-15T23:48:27.657Z,3.47
2023-03-15T23:50:57.049Z,3.10
2023-03-15T23:53:25.831Z,3.65
2023-03-15T23:55:53.292Z,3.10
2023-03-15T23:58:22.010Z,3.25
